sensor_id;sensor_type;location;lat;lon;timestamp;temperature;humidity
46976;DHT22;32724;51.094;6.996;2023-04-03T00:00:28;0.70;99.90
46976;DHT22;32724;51.094;6.996;2023-04-03T00:02:54;0.70;99.90
46976;DHT22;32724;51.094;6.996;2023-04-03T00:05:19;0.70;99.90
46976;DHT22;32724;51.094;6.996;2023-04-03T00:07:44;0.70;99.90
46976;DHT22;32724;51.094;6.996;2023-04-03T00:10:10;0.70;99.90
46976;DHT22;32724;51.094;6.996;2023-04-03T00:12:36;0.70;99.90
46976;DHT22;32724;51.094;6.996;2023-04-03T00:15:01;0.70;99.90
46976;DHT22;32724;51.094;6.996;2023-04-03T00:17:26;0.60;99.90
46976;DHT22;32724;51.094;6.996;2023-04-03T00:19:52;0.60;99.90
46976;DHT22;32724;51.094;6.996;2023-04-03T00:22:17;0.60;99.90
46976;DHT22;32724;51.094;6.996;2023-04-03T00:24:43;0.60;99.90
46976;DHT22;32724;51.094;6.996;2023-04-03T00:27:08;0.50;99.90
46976;DHT22;32724;51.094;6.996;2023-04-03T00:29:34;0.40;99.90
46976;DHT22;32724;51.094;6.996;2023-04-03T00:31:59;0.30;99.90
46976;DHT22;32724;51.094;6.996;2023-04-03T00:34:25;0.30;99.90
46976;DHT22;32724;51.094;6.996;2023-04-03T00:36:50;0.20;99.90
46976;DHT22;32724;51.094;6.996;2023-04-03T00:39:16;0.10;99.90
46976;DHT22;32724;51.094;6.996;2023-04-03T00:41:42;0.00;99.90
46976;DHT22;32724;51.094;6.996;2023-04-03T00:46:45;-0.10;99.90
46976;DHT22;32724;51.094;6.996;2023-04-03T00:49:10;0.00;99.90
46976;DHT22;32724;51.094;6.996;2023-04-03T00:51:36;-0.10;99.90
46976;DHT22;32724;51.094;6.996;2023-04-03T00:54:02;-0.10;99.90
46976;DHT22;32724;51.094;6.996;2023-04-03T00:56:29;0.00;99.90
46976;DHT22;32724;51.094;6.996;2023-04-03T00:58:59;0.00;99.90
46976;DHT22;32724;51.094;6.996;2023-04-03T01:01:27;0.10;99.90
46976;DHT22;32724;51.094;6.996;2023-04-03T01:03:52;0.10;99.90
46976;DHT22;32724;51.094;6.996;2023-04-03T01:06:20;0.10;99.90
46976;DHT22;32724;51.094;6.996;2023-04-03T01:08:47;0.10;99.90
46976;DHT22;32724;51.094;6.996;2023-04-03T01:11:13;0.10;99.90
46976;DHT22;32724;51.094;6.996;2023-04-03T01:13:39;0.00;99.90
46976;DHT22;32724;51.094;6.996;2023-04-03T01:16:06;0.00;99.90
46976;DHT22;32724;51.094;6.996;2023-04-03T01:18:31;-0.10;99.90
46976;DHT22;32724;51.094;6.996;2023-04-03T01:24:05;-0.10;99.90
46976;DHT22;32724;51.094;6.996;2023-04-03T01:26:34;-0.20;99.90
46976;DHT22;32724;51.094;6.996;2023-04-03T01:29:00;-0.10;99.90
46976;DHT22;32724;51.094;6.996;2023-04-03T01:32:08;-0.20;99.90
46976;DHT22;32724;51.094;6.996;2023-04-03T01:34:15;-0.20;99.90
46976;DHT22;32724;51.094;6.996;2023-04-03T01:36:40;-0.20;99.90
46976;DHT22;32724;51.094;6.996;2023-04-03T01:39:06;-0.20;99.90
46976;DHT22;32724;51.094;6.996;2023-04-03T01:41:31;-0.20;99.90
46976;DHT22;32724;51.094;6.996;2023-04-03T01:43:57;-0.20;99.90
46976;DHT22;32724;51.094;6.996;2023-04-03T01:46:22;0.20;99.90
46976;DHT22;32724;51.094;6.996;2023-04-03T01:48:48;0.20;99.90
46976;DHT22;32724;51.094;6.996;2023-04-03T01:51:14;0.00;99.90
46976;DHT22;32724;51.094;6.996;2023-04-03T01:53:39;-0.10;99.90
46976;DHT22;32724;51.094;6.996;2023-04-03T01:56:05;0.00;99.90
46976;DHT22;32724;51.094;6.996;2023-04-03T01:58:30;0.00;99.90
46976;DHT22;32724;51.094;6.996;2023-04-03T02:00:56;0.10;99.90
46976;DHT22;32724;51.094;6.996;2023-04-03T02:03:21;0.10;99.90
46976;DHT22;32724;51.094;6.996;2023-04-03T02:05:47;0.20;99.90
46976;DHT22;32724;51.094;6.996;2023-04-03T02:08:12;0.20;99.90
46976;DHT22;32724;51.094;6.996;2023-04-03T02:10:39;0.30;99.90
46976;DHT22;32724;51.094;6.996;2023-04-03T02:13:04;0.30;99.90
46976;DHT22;32724;51.094;6.996;2023-04-03T02:15:30;0.40;99.90
46976;DHT22;32724;51.094;6.996;2023-04-03T02:17:55;0.40;99.90
46976;DHT22;32724;51.094;6.996;2023-04-03T02:20:21;0.40;99.90
46976;DHT22;32724;51.094;6.996;2023-04-03T02:22:46;0.50;99.90
46976;DHT22;32724;51.094;6.996;2023-04-03T02:25:12;0.50;99.90
46976;DHT22;32724;51.094;6.996;2023-04-03T02:27:38;0.50;99.90
46976;DHT22;32724;51.094;6.996;2023-04-03T02:30:04;0.50;99.90
46976;DHT22;32724;51.094;6.996;2023-04-03T02:32:30;0.40;99.90
46976;DHT22;32724;51.094;6.996;2023-04-03T02:34:56;0.40;99.90
46976;DHT22;32724;51.094;6.996;2023-04-03T02:37:21;0.30;99.90
46976;DHT22;32724;51.094;6.996;2023-04-03T02:39:47;0.30;99.90
46976;DHT22;32724;51.094;6.996;2023-04-03T02:42:12;0.30;99.90
46976;DHT22;32724;51.094;6.996;2023-04-03T02:44:38;0.30;99.90
46976;DHT22;32724;51.094;6.996;2023-04-03T02:47:04;0.30;99.90
46976;DHT22;32724;51.094;6.996;2023-04-03T02:49:29;0.30;99.90
46976;DHT22;32724;51.094;6.996;2023-04-03T02:51:55;0.20;99.90
46976;DHT22;32724;51.094;6.996;2023-04-03T02:54:20;0.20;99.90
46976;DHT22;32724;51.094;6.996;2023-04-03T02:56:47;0.20;99.90
46976;DHT22;32724;51.094;6.996;2023-04-03T02:59:12;0.10;99.90
46976;DHT22;32724;51.094;6.996;2023-04-03T03:01:38;0.10;99.90
46976;DHT22;32724;51.094;6.996;2023-04-03T03:04:03;0.10;99.90
46976;DHT22;32724;51.094;6.996;2023-04-03T03:06:29;0.10;99.90
46976;DHT22;32724;51.094;6.996;2023-04-03T03:08:54;0.20;99.90
46976;DHT22;32724;51.094;6.996;2023-04-03T03:11:20;0.10;99.90
46976;DHT22;32724;51.094;6.996;2023-04-03T03:13:46;0.10;99.90
46976;DHT22;32724;51.094;6.996;2023-04-03T03:16:11;0.20;99.90
46976;DHT22;32724;51.094;6.996;2023-04-03T03:18:37;0.20;99.90
46976;DHT22;32724;51.094;6.996;2023-04-03T03:21:03;0.20;99.90
46976;DHT22;32724;51.094;6.996;2023-04-03T03:23:29;0.20;99.90
46976;DHT22;32724;51.094;6.996;2023-04-03T03:25:58;0.20;99.90
46976;DHT22;32724;51.094;6.996;2023-04-03T03:28:24;0.20;99.90
46976;DHT22;32724;51.094;6.996;2023-04-03T03:30:49;0.20;99.90
46976;DHT22;32724;51.094;6.996;2023-04-03T03:33:15;0.10;99.90
46976;DHT22;32724;51.094;6.996;2023-04-03T03:35:41;0.10;99.90
46976;DHT22;32724;51.094;6.996;2023-04-03T03:38:07;0.10;99.90
46976;DHT22;32724;51.094;6.996;2023-04-03T03:40:32;0.10;99.90
46976;DHT22;32724;51.094;6.996;2023-04-03T03:42:57;0.00;99.90
46976;DHT22;32724;51.094;6.996;2023-04-03T03:45:23;0.00;99.90
46976;DHT22;32724;51.094;6.996;2023-04-03T03:47:48;-0.10;99.90
46976;DHT22;32724;51.094;6.996;2023-04-03T03:50:14;-0.10;99.90
46976;DHT22;32724;51.094;6.996;2023-04-03T03:52:40;-0.10;99.90
46976;DHT22;32724;51.094;6.996;2023-04-03T03:55:05;-0.20;99.90
46976;DHT22;32724;51.094;6.996;2023-04-03T03:57:31;-0.20;99.90
46976;DHT22;32724;51.094;6.996;2023-04-03T03:59:57;-0.10;99.90
46976;DHT22;32724;51.094;6.996;2023-04-03T04:02:22;-0.10;99.90
46976;DHT22;32724;51.094;6.996;2023-04-03T04:04:48;-0.10;99.90
46976;DHT22;32724;51.094;6.996;2023-04-03T04:07:14;0.00;99.90
46976;DHT22;32724;51.094;6.996;2023-04-03T04:09:39;0.10;99.90
46976;DHT22;32724;51.094;6.996;2023-04-03T04:12:05;0.10;99.90
46976;DHT22;32724;51.094;6.996;2023-04-03T04:14:31;0.20;99.90
46976;DHT22;32724;51.094;6.996;2023-04-03T04:16:56;0.20;99.90
46976;DHT22;32724;51.094;6.996;2023-04-03T04:19:22;0.30;99.90
46976;DHT22;32724;51.094;6.996;2023-04-03T04:21:47;0.30;99.90
46976;DHT22;32724;51.094;6.996;2023-04-03T04:24:13;0.30;99.90
46976;DHT22;32724;51.094;6.996;2023-04-03T04:26:38;0.40;99.90
46976;DHT22;32724;51.094;6.996;2023-04-03T04:29:04;0.40;99.90
46976;DHT22;32724;51.094;6.996;2023-04-03T04:31:29;0.50;99.90
46976;DHT22;32724;51.094;6.996;2023-04-03T04:33:55;0.50;99.90
46976;DHT22;32724;51.094;6.996;2023-04-03T04:36:20;0.50;99.90
46976;DHT22;32724;51.094;6.996;2023-04-03T04:38:46;0.50;99.90
46976;DHT22;32724;51.094;6.996;2023-04-03T04:41:11;0.40;99.90
46976;DHT22;32724;51.094;6.996;2023-04-03T04:43:37;0.50;99.90
46976;DHT22;32724;51.094;6.996;2023-04-03T04:46:06;0.50;99.90
46976;DHT22;32724;51.094;6.996;2023-04-03T04:48:32;0.50;99.90
46976;DHT22;32724;51.094;6.996;2023-04-03T04:50:57;0.90;99.90
46976;DHT22;32724;51.094;6.996;2023-04-03T04:53:23;0.90;99.90
46976;DHT22;32724;51.094;6.996;2023-04-03T04:55:48;0.80;99.90
46976;DHT22;32724;51.094;6.996;2023-04-03T04:58:14;0.80;99.90
46976;DHT22;32724;51.094;6.996;2023-04-03T05:00:39;0.90;99.90
46976;DHT22;32724;51.094;6.996;2023-04-03T05:03:05;0.80;99.90
46976;DHT22;32724;51.094;6.996;2023-04-03T05:05:30;0.80;99.90
46976;DHT22;32724;51.094;6.996;2023-04-03T05:07:56;0.80;99.90
46976;DHT22;32724;51.094;6.996;2023-04-03T05:10:21;0.80;99.90
46976;DHT22;32724;51.094;6.996;2023-04-03T05:12:47;0.80;99.90
46976;DHT22;32724;51.094;6.996;2023-04-03T05:15:12;0.80;99.90
46976;DHT22;32724;51.094;6.996;2023-04-03T05:17:38;0.90;99.90
46976;DHT22;32724;51.094;6.996;2023-04-03T05:20:03;0.80;99.90
46976;DHT22;32724;51.094;6.996;2023-04-03T05:22:30;0.90;99.90
46976;DHT22;32724;51.094;6.996;2023-04-03T05:24:55;0.80;99.90
46976;DHT22;32724;51.094;6.996;2023-04-03T05:27:23;0.80;99.90
46976;DHT22;32724;51.094;6.996;2023-04-03T05:29:53;0.70;99.90
46976;DHT22;32724;51.094;6.996;2023-04-03T05:32:19;0.80;99.90
46976;DHT22;32724;51.094;6.996;2023-04-03T05:34:44;0.80;99.90
46976;DHT22;32724;51.094;6.996;2023-04-03T05:37:10;0.90;99.90
46976;DHT22;32724;51.094;6.996;2023-04-03T05:39:35;0.90;99.90
46976;DHT22;32724;51.094;6.996;2023-04-03T05:42:01;1.00;99.90
46976;DHT22;32724;51.094;6.996;2023-04-03T05:44:26;1.00;99.90
46976;DHT22;32724;51.094;6.996;2023-04-03T05:46:52;1.00;99.90
46976;DHT22;32724;51.094;6.996;2023-04-03T05:49:17;1.10;99.90
46976;DHT22;32724;51.094;6.996;2023-04-03T05:51:43;1.10;99.90
46976;DHT22;32724;51.094;6.996;2023-04-03T05:54:20;1.10;99.90
46976;DHT22;32724;51.094;6.996;2023-04-03T05:56:48;1.10;99.90
46976;DHT22;32724;51.094;6.996;2023-04-03T05:59:14;1.10;99.90
46976;DHT22;32724;51.094;6.996;2023-04-03T06:01:39;1.20;99.90
46976;DHT22;32724;51.094;6.996;2023-04-03T06:04:05;1.20;99.90
46976;DHT22;32724;51.094;6.996;2023-04-03T06:06:52;1.30;99.90
46976;DHT22;32724;51.094;6.996;2023-04-03T06:09:20;1.50;99.90
46976;DHT22;32724;51.094;6.996;2023-04-03T06:11:46;1.60;99.90
46976;DHT22;32724;51.094;6.996;2023-04-03T06:14:11;1.70;99.90
46976;DHT22;32724;51.094;6.996;2023-04-03T06:16:37;1.70;99.90
46976;DHT22;32724;51.094;6.996;2023-04-03T06:19:03;1.80;99.90
46976;DHT22;32724;51.094;6.996;2023-04-03T06:21:29;1.80;99.90
46976;DHT22;32724;51.094;6.996;2023-04-03T06:23:55;1.90;99.90
46976;DHT22;32724;51.094;6.996;2023-04-03T06:26:20;2.00;99.90
46976;DHT22;32724;51.094;6.996;2023-04-03T06:28:46;2.10;99.90
46976;DHT22;32724;51.094;6.996;2023-04-03T06:31:11;2.10;99.90
46976;DHT22;32724;51.094;6.996;2023-04-03T06:33:37;2.10;99.90
46976;DHT22;32724;51.094;6.996;2023-04-03T06:36:05;2.20;99.90
46976;DHT22;32724;51.094;6.996;2023-04-03T06:38:32;2.30;99.90
46976;DHT22;32724;51.094;6.996;2023-04-03T06:40:58;2.30;99.90
46976;DHT22;32724;51.094;6.996;2023-04-03T06:43:23;2.30;99.90
46976;DHT22;32724;51.094;6.996;2023-04-03T06:45:49;2.40;99.90
46976;DHT22;32724;51.094;6.996;2023-04-03T06:48:15;2.60;99.90
46976;DHT22;32724;51.094;6.996;2023-04-03T06:50:41;2.90;99.90
46976;DHT22;32724;51.094;6.996;2023-04-03T06:53:06;3.10;99.90
46976;DHT22;32724;51.094;6.996;2023-04-03T06:55:33;3.30;99.90
46976;DHT22;32724;51.094;6.996;2023-04-03T06:57:59;3.40;99.90
46976;DHT22;32724;51.094;6.996;2023-04-03T07:00:24;3.40;99.90
46976;DHT22;32724;51.094;6.996;2023-04-03T07:02:50;3.50;99.90
46976;DHT22;32724;51.094;6.996;2023-04-03T07:05:16;3.60;99.90
46976;DHT22;32724;51.094;6.996;2023-04-03T07:07:42;3.70;99.90
46976;DHT22;32724;51.094;6.996;2023-04-03T07:10:07;3.80;99.90
46976;DHT22;32724;51.094;6.996;2023-04-03T07:12:33;3.90;99.90
46976;DHT22;32724;51.094;6.996;2023-04-03T07:14:58;3.80;99.90
46976;DHT22;32724;51.094;6.996;2023-04-03T07:17:24;3.90;99.90
46976;DHT22;32724;51.094;6.996;2023-04-03T07:19:50;3.80;99.90
46976;DHT22;32724;51.094;6.996;2023-04-03T07:22:16;3.80;99.90
46976;DHT22;32724;51.094;6.996;2023-04-03T07:24:41;3.80;99.90
46976;DHT22;32724;51.094;6.996;2023-04-03T07:27:07;4.00;99.90
46976;DHT22;32724;51.094;6.996;2023-04-03T07:29:34;4.20;99.90
46976;DHT22;32724;51.094;6.996;2023-04-03T07:31:59;4.50;99.90
46976;DHT22;32724;51.094;6.996;2023-04-03T07:34:25;4.60;99.90
46976;DHT22;32724;51.094;6.996;2023-04-03T07:36:50;4.70;99.90
46976;DHT22;32724;51.094;6.996;2023-04-03T07:39:16;4.70;99.90
46976;DHT22;32724;51.094;6.996;2023-04-03T07:41:41;4.70;99.90
46976;DHT22;32724;51.094;6.996;2023-04-03T07:44:06;4.70;99.90
46976;DHT22;32724;51.094;6.996;2023-04-03T07:46:34;4.90;99.90
46976;DHT22;32724;51.094;6.996;2023-04-03T07:49:00;5.00;99.90
46976;DHT22;32724;51.094;6.996;2023-04-03T07:51:25;5.10;99.90
46976;DHT22;32724;51.094;6.996;2023-04-03T07:53:51;5.10;99.90
46976;DHT22;32724;51.094;6.996;2023-04-03T07:56:17;5.10;99.90
46976;DHT22;32724;51.094;6.996;2023-04-03T07:58:43;5.20;99.90
46976;DHT22;32724;51.094;6.996;2023-04-03T08:01:08;5.30;99.90
46976;DHT22;32724;51.094;6.996;2023-04-03T08:03:34;5.40;99.90
46976;DHT22;32724;51.094;6.996;2023-04-03T08:06:03;5.40;99.90
46976;DHT22;32724;51.094;6.996;2023-04-03T08:08:29;5.50;99.90
46976;DHT22;32724;51.094;6.996;2023-04-03T08:10:57;5.50;99.90
46976;DHT22;32724;51.094;6.996;2023-04-03T08:13:23;5.70;99.90
46976;DHT22;32724;51.094;6.996;2023-04-03T08:15:48;5.90;99.90
46976;DHT22;32724;51.094;6.996;2023-04-03T08:18:14;6.10;99.90
46976;DHT22;32724;51.094;6.996;2023-04-03T08:20:40;6.30;99.90
46976;DHT22;32724;51.094;6.996;2023-04-03T08:23:06;6.10;99.90
46976;DHT22;32724;51.094;6.996;2023-04-03T08:25:32;6.40;99.90
46976;DHT22;32724;51.094;6.996;2023-04-03T08:27:58;6.40;99.90
46976;DHT22;32724;51.094;6.996;2023-04-03T08:30:23;6.50;99.90
46976;DHT22;32724;51.094;6.996;2023-04-03T08:32:49;6.50;99.90
46976;DHT22;32724;51.094;6.996;2023-04-03T08:35:14;6.60;99.90
46976;DHT22;32724;51.094;6.996;2023-04-03T08:37:40;6.70;99.90
46976;DHT22;32724;51.094;6.996;2023-04-03T08:40:06;6.90;99.90
46976;DHT22;32724;51.094;6.996;2023-04-03T08:42:40;6.90;99.90
46976;DHT22;32724;51.094;6.996;2023-04-03T08:45:09;6.80;99.90
46976;DHT22;32724;51.094;6.996;2023-04-03T08:47:47;6.70;99.90
46976;DHT22;32724;51.094;6.996;2023-04-03T08:50:17;7.00;99.90
46976;DHT22;32724;51.094;6.996;2023-04-03T08:52:51;7.10;99.90
46976;DHT22;32724;51.094;6.996;2023-04-03T08:57:50;7.50;99.90
46976;DHT22;32724;51.094;6.996;2023-04-03T09:00:18;7.40;99.50
46976;DHT22;32724;51.094;6.996;2023-04-03T09:02:48;7.50;99.90
46976;DHT22;32724;51.094;6.996;2023-04-03T09:05:16;7.40;99.90
46976;DHT22;32724;51.094;6.996;2023-04-03T09:07:43;7.40;98.90
46976;DHT22;32724;51.094;6.996;2023-04-03T09:10:10;7.40;99.70
46976;DHT22;32724;51.094;6.996;2023-04-03T09:12:38;7.30;99.20
46976;DHT22;32724;51.094;6.996;2023-04-03T09:15:18;7.20;99.00
46976;DHT22;32724;51.094;6.996;2023-04-03T09:22:45;7.20;98.70
46976;DHT22;32724;51.094;6.996;2023-04-03T09:25:18;7.20;98.90
46976;DHT22;32724;51.094;6.996;2023-04-03T09:27:45;7.10;99.20
46976;DHT22;32724;51.094;6.996;2023-04-03T09:30:21;7.30;99.60
46976;DHT22;32724;51.094;6.996;2023-04-03T09:32:53;7.50;99.40
46976;DHT22;32724;51.094;6.996;2023-04-03T09:37:45;7.70;99.00
46976;DHT22;32724;51.094;6.996;2023-04-03T09:42:53;7.70;99.10
46976;DHT22;32724;51.094;6.996;2023-04-03T09:45:23;7.90;99.40
46976;DHT22;32724;51.094;6.996;2023-04-03T09:47:52;8.00;99.70
46976;DHT22;32724;51.094;6.996;2023-04-03T09:50:28;8.30;99.90
46976;DHT22;32724;51.094;6.996;2023-04-03T09:52:54;8.50;96.30
46976;DHT22;32724;51.094;6.996;2023-04-03T09:55:24;8.60;99.10
46976;DHT22;32724;51.094;6.996;2023-04-03T09:57:57;8.60;92.60
46976;DHT22;32724;51.094;6.996;2023-04-03T10:00:27;8.30;91.90
46976;DHT22;32724;51.094;6.996;2023-04-03T10:02:54;8.20;92.60
46976;DHT22;32724;51.094;6.996;2023-04-03T10:05:39;8.10;91.60
46976;DHT22;32724;51.094;6.996;2023-04-03T10:10:41;8.30;91.10
46976;DHT22;32724;51.094;6.996;2023-04-03T10:13:19;8.20;90.80
46976;DHT22;32724;51.094;6.996;2023-04-03T10:18:59;8.10;89.90
46976;DHT22;32724;51.094;6.996;2023-04-03T10:29:06;8.10;90.00
46976;DHT22;32724;51.094;6.996;2023-04-03T10:31:40;8.10;90.10
46976;DHT22;32724;51.094;6.996;2023-04-03T10:34:23;8.10;89.60
46976;DHT22;32724;51.094;6.996;2023-04-03T10:41:53;8.20;90.20
46976;DHT22;32724;51.094;6.996;2023-04-03T10:44:25;8.40;90.80
46976;DHT22;32724;51.094;6.996;2023-04-03T10:49:58;8.60;83.60
46976;DHT22;32724;51.094;6.996;2023-04-03T10:52:43;8.30;83.70
46976;DHT22;32724;51.094;6.996;2023-04-03T10:55:23;8.40;85.40
46976;DHT22;32724;51.094;6.996;2023-04-03T10:57:50;8.30;86.30
46976;DHT22;32724;51.094;6.996;2023-04-03T11:00:17;8.40;84.10
46976;DHT22;32724;51.094;6.996;2023-04-03T11:05:24;8.60;84.30
46976;DHT22;32724;51.094;6.996;2023-04-03T11:07:52;8.80;87.10
46976;DHT22;32724;51.094;6.996;2023-04-03T11:10:23;8.90;79.90
46976;DHT22;32724;51.094;6.996;2023-04-03T11:12:56;8.90;81.00
46976;DHT22;32724;51.094;6.996;2023-04-03T11:15:24;9.00;81.40
46976;DHT22;32724;51.094;6.996;2023-04-03T11:17:55;8.90;80.20
46976;DHT22;32724;51.094;6.996;2023-04-03T11:20:24;9.00;80.60
46976;DHT22;32724;51.094;6.996;2023-04-03T11:23:00;9.10;80.30
46976;DHT22;32724;51.094;6.996;2023-04-03T11:25:26;9.20;79.70
46976;DHT22;32724;51.094;6.996;2023-04-03T11:27:58;9.30;79.40
46976;DHT22;32724;51.094;6.996;2023-04-03T11:35:36;9.20;82.40
46976;DHT22;32724;51.094;6.996;2023-04-03T11:38:03;8.90;81.80
46976;DHT22;32724;51.094;6.996;2023-04-03T11:40:32;8.70;81.10
46976;DHT22;32724;51.094;6.996;2023-04-03T11:47:55;9.10;82.90
46976;DHT22;32724;51.094;6.996;2023-04-03T11:50:30;9.10;79.40
46976;DHT22;32724;51.094;6.996;2023-04-03T11:52:56;9.00;80.80
46976;DHT22;32724;51.094;6.996;2023-04-03T12:05:54;9.40;76.70
46976;DHT22;32724;51.094;6.996;2023-04-03T12:13:38;9.50;74.00
46976;DHT22;32724;51.094;6.996;2023-04-03T12:16:04;9.50;75.70
46976;DHT22;32724;51.094;6.996;2023-04-03T12:18:43;9.60;72.50
46976;DHT22;32724;51.094;6.996;2023-04-03T12:21:12;9.70;73.50
46976;DHT22;32724;51.094;6.996;2023-04-03T12:26:26;9.80;73.70
46976;DHT22;32724;51.094;6.996;2023-04-03T12:28:53;9.80;70.80
46976;DHT22;32724;51.094;6.996;2023-04-03T12:31:18;9.80;70.70
46976;DHT22;32724;51.094;6.996;2023-04-03T12:36:11;9.80;71.80
46976;DHT22;32724;51.094;6.996;2023-04-03T12:38:44;9.80;74.20
46976;DHT22;32724;51.094;6.996;2023-04-03T12:41:30;9.80;72.40
46976;DHT22;32724;51.094;6.996;2023-04-03T12:44:19;9.70;72.50
46976;DHT22;32724;51.094;6.996;2023-04-03T12:46:49;9.60;73.30
46976;DHT22;32724;51.094;6.996;2023-04-03T12:49:33;9.50;76.30
46976;DHT22;32724;51.094;6.996;2023-04-03T12:52:02;9.40;77.70
46976;DHT22;32724;51.094;6.996;2023-04-03T12:54:40;9.30;74.90
46976;DHT22;32724;51.094;6.996;2023-04-03T12:57:10;9.00;76.20
46976;DHT22;32724;51.094;6.996;2023-04-03T12:59:36;9.10;77.10
46976;DHT22;32724;51.094;6.996;2023-04-03T13:02:07;9.20;76.70
46976;DHT22;32724;51.094;6.996;2023-04-03T13:04:37;9.60;75.70
46976;DHT22;32724;51.094;6.996;2023-04-03T13:07:03;9.60;78.30
46976;DHT22;32724;51.094;6.996;2023-04-03T13:09:30;9.70;75.40
46976;DHT22;32724;51.094;6.996;2023-04-03T13:11:57;9.60;76.30
46976;DHT22;32724;51.094;6.996;2023-04-03T13:14:24;9.60;76.10
46976;DHT22;32724;51.094;6.996;2023-04-03T13:16:54;9.50;75.10
46976;DHT22;32724;51.094;6.996;2023-04-03T13:19:22;9.40;75.10
46976;DHT22;32724;51.094;6.996;2023-04-03T13:21:47;9.40;75.90
46976;DHT22;32724;51.094;6.996;2023-04-03T13:24:14;9.40;76.50
46976;DHT22;32724;51.094;6.996;2023-04-03T13:26:40;9.40;77.10
46976;DHT22;32724;51.094;6.996;2023-04-03T13:29:07;9.50;76.30
46976;DHT22;32724;51.094;6.996;2023-04-03T13:31:34;9.50;75.60
46976;DHT22;32724;51.094;6.996;2023-04-03T13:37:13;9.50;77.00
46976;DHT22;32724;51.094;6.996;2023-04-03T13:41:42;9.50;77.40
46976;DHT22;32724;51.094;6.996;2023-04-03T13:44:15;9.60;78.10
46976;DHT22;32724;51.094;6.996;2023-04-03T13:46:40;9.60;78.00
46976;DHT22;32724;51.094;6.996;2023-04-03T13:49:17;9.60;76.90
46976;DHT22;32724;51.094;6.996;2023-04-03T13:51:42;9.60;77.80
46976;DHT22;32724;51.094;6.996;2023-04-03T13:54:22;9.60;77.30
46976;DHT22;32724;51.094;6.996;2023-04-03T13:56:52;9.60;78.90
46976;DHT22;32724;51.094;6.996;2023-04-03T13:59:22;9.50;75.90
46976;DHT22;32724;51.094;6.996;2023-04-03T14:04:22;9.40;78.00
46976;DHT22;32724;51.094;6.996;2023-04-03T14:06:48;9.50;76.40
46976;DHT22;32724;51.094;6.996;2023-04-03T14:09:15;9.30;76.00
46976;DHT22;32724;51.094;6.996;2023-04-03T14:11:40;9.30;78.40
46976;DHT22;32724;51.094;6.996;2023-04-03T14:14:11;9.30;77.50
46976;DHT22;32724;51.094;6.996;2023-04-03T14:16:39;9.10;80.20
46976;DHT22;32724;51.094;6.996;2023-04-03T14:19:05;9.20;82.50
46976;DHT22;32724;51.094;6.996;2023-04-03T14:21:30;9.40;78.00
46976;DHT22;32724;51.094;6.996;2023-04-03T14:23:56;9.20;78.00
46976;DHT22;32724;51.094;6.996;2023-04-03T14:26:22;9.30;76.70
46976;DHT22;32724;51.094;6.996;2023-04-03T14:28:52;9.30;76.90
46976;DHT22;32724;51.094;6.996;2023-04-03T14:31:19;9.40;76.10
46976;DHT22;32724;51.094;6.996;2023-04-03T14:33:44;9.40;75.20
46976;DHT22;32724;51.094;6.996;2023-04-03T14:36:27;9.40;74.80
46976;DHT22;32724;51.094;6.996;2023-04-03T14:38:53;9.40;77.20
46976;DHT22;32724;51.094;6.996;2023-04-03T14:41:20;9.50;76.00
46976;DHT22;32724;51.094;6.996;2023-04-03T14:43:46;9.50;76.40
46976;DHT22;32724;51.094;6.996;2023-04-03T14:46:13;9.60;76.30
46976;DHT22;32724;51.094;6.996;2023-04-03T14:48:38;9.50;76.70
46976;DHT22;32724;51.094;6.996;2023-04-03T14:51:03;9.60;76.70
46976;DHT22;32724;51.094;6.996;2023-04-03T14:53:28;9.50;76.20
46976;DHT22;32724;51.094;6.996;2023-04-03T14:55:54;9.50;76.40
46976;DHT22;32724;51.094;6.996;2023-04-03T14:58:20;9.40;76.50
46976;DHT22;32724;51.094;6.996;2023-04-03T15:00:46;9.50;78.30
46976;DHT22;32724;51.094;6.996;2023-04-03T15:03:18;9.60;77.90
46976;DHT22;32724;51.094;6.996;2023-04-03T15:05:45;9.70;77.00
46976;DHT22;32724;51.094;6.996;2023-04-03T15:08:18;9.60;75.60
46976;DHT22;32724;51.094;6.996;2023-04-03T15:10:45;9.50;74.40
46976;DHT22;32724;51.094;6.996;2023-04-03T15:13:11;9.50;77.10
46976;DHT22;32724;51.094;6.996;2023-04-03T15:15:37;9.40;74.40
46976;DHT22;32724;51.094;6.996;2023-04-03T15:18:02;9.30;75.80
46976;DHT22;32724;51.094;6.996;2023-04-03T15:20:28;9.40;75.80
46976;DHT22;32724;51.094;6.996;2023-04-03T15:22:56;9.40;76.70
46976;DHT22;32724;51.094;6.996;2023-04-03T15:25:22;9.50;76.10
46976;DHT22;32724;51.094;6.996;2023-04-03T15:27:47;9.30;77.90
46976;DHT22;32724;51.094;6.996;2023-04-03T15:30:14;9.40;77.00
46976;DHT22;32724;51.094;6.996;2023-04-03T15:32:40;9.40;77.00
46976;DHT22;32724;51.094;6.996;2023-04-03T15:35:05;9.40;74.90
46976;DHT22;32724;51.094;6.996;2023-04-03T15:37:31;9.40;77.20
46976;DHT22;32724;51.094;6.996;2023-04-03T15:39:56;9.30;75.70
46976;DHT22;32724;51.094;6.996;2023-04-03T15:42:22;9.20;76.50
46976;DHT22;32724;51.094;6.996;2023-04-03T15:44:47;9.20;76.20
46976;DHT22;32724;51.094;6.996;2023-04-03T15:47:13;9.20;76.80
46976;DHT22;32724;51.094;6.996;2023-04-03T15:49:38;9.20;77.70
46976;DHT22;32724;51.094;6.996;2023-04-03T15:52:04;9.20;77.40
46976;DHT22;32724;51.094;6.996;2023-04-03T15:54:30;9.20;78.10
46976;DHT22;32724;51.094;6.996;2023-04-03T15:56:55;9.20;77.20
46976;DHT22;32724;51.094;6.996;2023-04-03T15:59:21;9.20;79.80
46976;DHT22;32724;51.094;6.996;2023-04-03T16:01:47;9.30;80.60
46976;DHT22;32724;51.094;6.996;2023-04-03T16:04:13;9.10;77.40
46976;DHT22;32724;51.094;6.996;2023-04-03T16:06:38;9.10;77.40
46976;DHT22;32724;51.094;6.996;2023-04-03T16:09:04;9.10;76.20
46976;DHT22;32724;51.094;6.996;2023-04-03T16:11:30;9.10;76.40
46976;DHT22;32724;51.094;6.996;2023-04-03T16:13:55;9.00;76.30
46976;DHT22;32724;51.094;6.996;2023-04-03T16:16:21;9.00;77.20
46976;DHT22;32724;51.094;6.996;2023-04-03T16:18:47;9.10;76.30
46976;DHT22;32724;51.094;6.996;2023-04-03T16:21:13;9.00;78.20
46976;DHT22;32724;51.094;6.996;2023-04-03T16:23:40;9.00;78.50
46976;DHT22;32724;51.094;6.996;2023-04-03T16:26:05;9.00;77.80
46976;DHT22;32724;51.094;6.996;2023-04-03T16:28:31;9.00;78.10
46976;DHT22;32724;51.094;6.996;2023-04-03T16:30:56;8.90;78.40
46976;DHT22;32724;51.094;6.996;2023-04-03T16:33:22;8.70;77.90
46976;DHT22;32724;51.094;6.996;2023-04-03T16:35:48;8.60;79.20
46976;DHT22;32724;51.094;6.996;2023-04-03T16:38:14;8.60;81.60
46976;DHT22;32724;51.094;6.996;2023-04-03T16:40:40;8.60;79.80
46976;DHT22;32724;51.094;6.996;2023-04-03T16:43:06;8.50;80.80
46976;DHT22;32724;51.094;6.996;2023-04-03T16:45:31;8.60;80.20
46976;DHT22;32724;51.094;6.996;2023-04-03T16:47:57;8.60;81.10
46976;DHT22;32724;51.094;6.996;2023-04-03T16:50:22;8.60;82.30
46976;DHT22;32724;51.094;6.996;2023-04-03T16:52:48;8.60;82.00
46976;DHT22;32724;51.094;6.996;2023-04-03T16:55:13;8.60;81.60
46976;DHT22;32724;51.094;6.996;2023-04-03T16:57:39;8.60;81.50
46976;DHT22;32724;51.094;6.996;2023-04-03T17:00:04;8.50;80.80
46976;DHT22;32724;51.094;6.996;2023-04-03T17:02:30;8.50;81.40
46976;DHT22;32724;51.094;6.996;2023-04-03T17:04:56;8.40;80.50